sensor_id;sensor_type;location;lat;lon;timestamp;P1;durP1;ratioP1;P2;durP2;ratioP2
47161;SDS011;32921;53.256;8.198;2022-12-15T00:00:50;56.10;;;24.77;;
47161;SDS011;32921;53.256;8.198;2022-12-15T00:03:34;53.05;;;24.35;;
47161;SDS011;32921;53.256;8.198;2022-12-15T00:06:18;44.95;;;21.73;;
47161;SDS011;32921;53.256;8.198;2022-12-15T00:09:02;48.28;;;24.33;;
47161;SDS011;32921;53.256;8.198;2022-12-15T00:11:48;51.80;;;23.48;;
47161;SDS011;32921;53.256;8.198;2022-12-15T00:14:32;47.60;;;22.77;;
47161;SDS011;32921;53.256;8.198;2022-12-15T00:17:16;53.50;;;24.60;;
47161;SDS011;32921;53.256;8.198;2022-12-15T00:20:00;54.88;;;25.13;;
47161;SDS011;32921;53.256;8.198;2022-12-15T00:22:44;53.25;;;24.77;;
47161;SDS011;32921;53.256;8.198;2022-12-15T00:25:28;57.53;;;27.58;;
47161;SDS011;32921;53.256;8.198;2022-12-15T00:28:12;54.60;;;25.20;;
47161;SDS011;32921;53.256;8.198;2022-12-15T00:30:59;58.95;;;27.38;;
47161;SDS011;32921;53.256;8.198;2022-12-15T00:33:43;51.97;;;25.53;;
47161;SDS011;32921;53.256;8.198;2022-12-15T00:36:27;58.70;;;27.27;;
47161;SDS011;32921;53.256;8.198;2022-12-15T00:39:12;53.45;;;26.38;;
47161;SDS011;32921;53.256;8.198;2022-12-15T00:41:37;57.53;;;25.98;;
47161;SDS011;32921;53.256;8.198;2022-12-15T00:44:03;56.28;;;26.80;;
47161;SDS011;32921;53.256;8.198;2022-12-15T00:46:29;53.47;;;25.57;;
47161;SDS011;32921;53.256;8.198;2022-12-15T00:49:13;60.83;;;26.85;;
47161;SDS011;32921;53.256;8.198;2022-12-15T00:51:57;50.67;;;25.40;;
47161;SDS011;32921;53.256;8.198;2022-12-15T00:54:41;55.90;;;27.13;;
47161;SDS011;32921;53.256;8.198;2022-12-15T00:57:25;50.90;;;25.23;;
47161;SDS011;32921;53.256;8.198;2022-12-15T01:00:09;51.53;;;24.65;;
47161;SDS011;32921;53.256;8.198;2022-12-15T01:02:54;48.20;;;22.43;;
47161;SDS011;32921;53.256;8.198;2022-12-15T01:05:38;50.85;;;25.10;;
47161;SDS011;32921;53.256;8.198;2022-12-15T01:08:22;51.47;;;25.27;;
47161;SDS011;32921;53.256;8.198;2022-12-15T01:11:06;48.55;;;24.10;;
47161;SDS011;32921;53.256;8.198;2022-12-15T01:13:50;54.33;;;22.80;;
47161;SDS011;32921;53.256;8.198;2022-12-15T01:16:34;48.55;;;24.40;;
47161;SDS011;32921;53.256;8.198;2022-12-15T01:19:18;53.28;;;24.95;;
47161;SDS011;32921;53.256;8.198;2022-12-15T01:22:02;51.67;;;25.17;;
47161;SDS011;32921;53.256;8.198;2022-12-15T01:24:29;57.70;;;27.07;;
47161;SDS011;32921;53.256;8.198;2022-12-15T01:26:55;55.33;;;24.92;;
47161;SDS011;32921;53.256;8.198;2022-12-15T01:29:21;51.33;;;23.15;;
47161;SDS011;32921;53.256;8.198;2022-12-15T01:31:47;57.08;;;26.33;;
47161;SDS011;32921;53.256;8.198;2022-12-15T01:34:13;58.78;;;26.77;;
47161;SDS011;32921;53.256;8.198;2022-12-15T01:36:38;56.40;;;25.27;;
47161;SDS011;32921;53.256;8.198;2022-12-15T01:39:04;57.30;;;26.73;;
47161;SDS011;32921;53.256;8.198;2022-12-15T01:41:29;56.10;;;26.45;;
47161;SDS011;32921;53.256;8.198;2022-12-15T01:44:12;52.50;;;25.23;;
47161;SDS011;32921;53.256;8.198;2022-12-15T01:46:40;56.15;;;25.75;;
47161;SDS011;32921;53.256;8.198;2022-12-15T01:49:13;61.15;;;28.27;;
47161;SDS011;32921;53.256;8.198;2022-12-15T01:51:42;55.58;;;25.70;;
47161;SDS011;32921;53.256;8.198;2022-12-15T01:54:13;58.75;;;24.70;;
47161;SDS011;32921;53.256;8.198;2022-12-15T01:56:45;54.67;;;24.50;;
47161;SDS011;32921;53.256;8.198;2022-12-15T01:59:15;50.88;;;22.83;;
47161;SDS011;32921;53.256;8.198;2022-12-15T02:01:48;55.88;;;25.92;;
47161;SDS011;32921;53.256;8.198;2022-12-15T02:04:14;58.33;;;25.35;;
47161;SDS011;32921;53.256;8.198;2022-12-15T02:06:42;58.33;;;27.00;;
47161;SDS011;32921;53.256;8.198;2022-12-15T02:09:07;57.58;;;26.38;;
47161;SDS011;32921;53.256;8.198;2022-12-15T02:14:09;54.30;;;25.13;;
47161;SDS011;32921;53.256;8.198;2022-12-15T02:27:21;52.67;;;24.83;;
47161;SDS011;32921;53.256;8.198;2022-12-15T02:30:07;51.50;;;23.38;;
47161;SDS011;32921;53.256;8.198;2022-12-15T02:32:36;52.28;;;24.45;;
47161;SDS011;32921;53.256;8.198;2022-12-15T02:35:09;50.90;;;25.35;;
47161;SDS011;32921;53.256;8.198;2022-12-15T02:37:41;53.85;;;23.88;;
47161;SDS011;32921;53.256;8.198;2022-12-15T02:40:09;57.97;;;27.38;;
47161;SDS011;32921;53.256;8.198;2022-12-15T02:42:36;58.45;;;27.08;;
47161;SDS011;32921;53.256;8.198;2022-12-15T02:45:08;54.30;;;25.70;;
47161;SDS011;32921;53.256;8.198;2022-12-15T02:53:00;54.00;;;24.45;;
47161;SDS011;32921;53.256;8.198;2022-12-15T02:55:40;55.70;;;25.38;;
47161;SDS011;32921;53.256;8.198;2022-12-15T02:59:03;54.75;;;25.00;;
47161;SDS011;32921;53.256;8.198;2022-12-15T03:01:13;55.65;;;26.55;;
47161;SDS011;32921;53.256;8.198;2022-12-15T03:03:44;48.65;;;21.45;;
47161;SDS011;32921;53.256;8.198;2022-12-15T03:06:12;59.47;;;25.13;;
47161;SDS011;32921;53.256;8.198;2022-12-15T03:08:39;52.67;;;24.98;;
47161;SDS011;32921;53.256;8.198;2022-12-15T03:11:04;60.10;;;26.60;;
47161;SDS011;32921;53.256;8.198;2022-12-15T03:13:30;49.95;;;24.42;;
47161;SDS011;32921;53.256;8.198;2022-12-15T03:16:01;55.42;;;26.42;;
47161;SDS011;32921;53.256;8.198;2022-12-15T03:18:27;57.03;;;25.95;;
47161;SDS011;32921;53.256;8.198;2022-12-15T03:20:53;55.83;;;26.30;;
47161;SDS011;32921;53.256;8.198;2022-12-15T03:23:18;53.45;;;23.77;;
47161;SDS011;32921;53.256;8.198;2022-12-15T03:25:46;61.08;;;26.17;;
47161;SDS011;32921;53.256;8.198;2022-12-15T03:28:12;58.03;;;27.23;;
47161;SDS011;32921;53.256;8.198;2022-12-15T03:30:38;52.10;;;24.85;;
47161;SDS011;32921;53.256;8.198;2022-12-15T03:33:03;58.50;;;27.58;;
47161;SDS011;32921;53.256;8.198;2022-12-15T03:35:29;53.90;;;25.98;;
47161;SDS011;32921;53.256;8.198;2022-12-15T03:37:55;57.53;;;26.08;;
47161;SDS011;32921;53.256;8.198;2022-12-15T03:40:21;50.47;;;25.15;;
47161;SDS011;32921;53.256;8.198;2022-12-15T03:42:46;48.90;;;23.52;;
47161;SDS011;32921;53.256;8.198;2022-12-15T03:45:12;51.07;;;26.67;;
47161;SDS011;32921;53.256;8.198;2022-12-15T03:47:42;49.15;;;25.10;;
47161;SDS011;32921;53.256;8.198;2022-12-15T03:50:09;55.35;;;27.08;;
47161;SDS011;32921;53.256;8.198;2022-12-15T03:52:35;58.58;;;26.58;;
47161;SDS011;32921;53.256;8.198;2022-12-15T03:55:01;39.10;;;19.58;;
47161;SDS011;32921;53.256;8.198;2022-12-15T03:57:28;52.88;;;24.27;;
47161;SDS011;32921;53.256;8.198;2022-12-15T03:59:53;50.35;;;24.88;;
47161;SDS011;32921;53.256;8.198;2022-12-15T04:02:19;49.38;;;25.13;;
47161;SDS011;32921;53.256;8.198;2022-12-15T04:04:45;52.47;;;25.48;;
47161;SDS011;32921;53.256;8.198;2022-12-15T04:07:10;51.97;;;22.20;;
47161;SDS011;32921;53.256;8.198;2022-12-15T04:09:36;54.13;;;25.42;;
47161;SDS011;32921;53.256;8.198;2022-12-15T04:12:02;52.17;;;25.13;;
47161;SDS011;32921;53.256;8.198;2022-12-15T04:14:28;50.13;;;24.38;;
47161;SDS011;32921;53.256;8.198;2022-12-15T04:16:54;50.10;;;21.85;;
47161;SDS011;32921;53.256;8.198;2022-12-15T04:19:20;50.47;;;25.33;;
47161;SDS011;32921;53.256;8.198;2022-12-15T04:22:04;44.60;;;20.88;;
47161;SDS011;32921;53.256;8.198;2022-12-15T04:24:30;50.28;;;25.02;;
47161;SDS011;32921;53.256;8.198;2022-12-15T04:27:14;53.05;;;26.05;;
47161;SDS011;32921;53.256;8.198;2022-12-15T04:29:58;52.20;;;25.48;;
47161;SDS011;32921;53.256;8.198;2022-12-15T04:32:42;53.72;;;24.42;;
47161;SDS011;32921;53.256;8.198;2022-12-15T04:35:26;51.50;;;24.40;;
47161;SDS011;32921;53.256;8.198;2022-12-15T04:38:11;53.67;;;25.58;;
47161;SDS011;32921;53.256;8.198;2022-12-15T04:40:55;50.10;;;24.65;;
47161;SDS011;32921;53.256;8.198;2022-12-15T04:43:39;47.08;;;24.30;;
47161;SDS011;32921;53.256;8.198;2022-12-15T04:46:24;51.75;;;26.15;;
47161;SDS011;32921;53.256;8.198;2022-12-15T04:49:08;53.30;;;25.25;;
47161;SDS011;32921;53.256;8.198;2022-12-15T04:51:52;49.20;;;23.83;;
47161;SDS011;32921;53.256;8.198;2022-12-15T04:54:36;48.80;;;23.92;;
47161;SDS011;32921;53.256;8.198;2022-12-15T04:57:20;46.85;;;22.02;;
47161;SDS011;32921;53.256;8.198;2022-12-15T05:00:04;49.83;;;23.58;;
47161;SDS011;32921;53.256;8.198;2022-12-15T05:02:48;52.42;;;24.38;;
47161;SDS011;32921;53.256;8.198;2022-12-15T05:05:32;51.57;;;23.97;;
47161;SDS011;32921;53.256;8.198;2022-12-15T05:08:16;45.05;;;23.08;;
47161;SDS011;32921;53.256;8.198;2022-12-15T05:11:00;50.28;;;24.42;;
47161;SDS011;32921;53.256;8.198;2022-12-15T05:13:44;47.50;;;23.52;;
47161;SDS011;32921;53.256;8.198;2022-12-15T05:16:28;51.38;;;24.50;;
47161;SDS011;32921;53.256;8.198;2022-12-15T05:19:12;41.10;;;19.85;;
47161;SDS011;32921;53.256;8.198;2022-12-15T05:21:56;46.08;;;24.20;;
47161;SDS011;32921;53.256;8.198;2022-12-15T05:24:40;50.20;;;23.52;;
47161;SDS011;32921;53.256;8.198;2022-12-15T05:27:24;50.45;;;24.13;;
47161;SDS011;32921;53.256;8.198;2022-12-15T05:30:08;48.70;;;23.30;;
47161;SDS011;32921;53.256;8.198;2022-12-15T05:32:53;53.38;;;25.98;;
47161;SDS011;32921;53.256;8.198;2022-12-15T05:35:19;51.28;;;24.98;;
47161;SDS011;32921;53.256;8.198;2022-12-15T05:37:44;52.10;;;23.08;;
47161;SDS011;32921;53.256;8.198;2022-12-15T05:40:10;40.58;;;20.20;;
47161;SDS011;32921;53.256;8.198;2022-12-15T05:42:36;52.58;;;25.13;;
47161;SDS011;32921;53.256;8.198;2022-12-15T05:45:01;49.63;;;24.73;;
47161;SDS011;32921;53.256;8.198;2022-12-15T05:47:29;48.88;;;24.33;;
47161;SDS011;32921;53.256;8.198;2022-12-15T05:49:54;51.22;;;23.65;;
47161;SDS011;32921;53.256;8.198;2022-12-15T05:52:20;50.08;;;25.83;;
47161;SDS011;32921;53.256;8.198;2022-12-15T05:54:45;52.97;;;24.63;;
47161;SDS011;32921;53.256;8.198;2022-12-15T05:57:11;53.78;;;24.55;;
47161;SDS011;32921;53.256;8.198;2022-12-15T05:59:36;52.38;;;25.52;;
47161;SDS011;32921;53.256;8.198;2022-12-15T06:02:02;54.17;;;24.88;;
47161;SDS011;32921;53.256;8.198;2022-12-15T06:04:28;45.67;;;19.15;;
47161;SDS011;32921;53.256;8.198;2022-12-15T06:06:53;49.60;;;23.85;;
47161;SDS011;32921;53.256;8.198;2022-12-15T06:09:19;35.25;;;12.90;;
47161;SDS011;32921;53.256;8.198;2022-12-15T06:11:44;45.83;;;21.60;;
47161;SDS011;32921;53.256;8.198;2022-12-15T06:14:10;49.92;;;22.77;;
47161;SDS011;32921;53.256;8.198;2022-12-15T06:16:36;55.42;;;21.50;;
47161;SDS011;32921;53.256;8.198;2022-12-15T06:19:02;50.17;;;23.92;;
47161;SDS011;32921;53.256;8.198;2022-12-15T06:21:29;49.55;;;24.88;;
47161;SDS011;32921;53.256;8.198;2022-12-15T06:23:56;51.25;;;24.35;;
47161;SDS011;32921;53.256;8.198;2022-12-15T06:26:26;48.75;;;23.77;;
47161;SDS011;32921;53.256;8.198;2022-12-15T06:29:00;43.90;;;23.30;;
47161;SDS011;32921;53.256;8.198;2022-12-15T06:31:27;47.83;;;23.87;;
47161;SDS011;32921;53.256;8.198;2022-12-15T06:33:53;43.80;;;21.00;;
47161;SDS011;32921;53.256;8.198;2022-12-15T06:36:20;45.80;;;23.30;;
47161;SDS011;32921;53.256;8.198;2022-12-15T06:38:48;45.10;;;22.95;;
47161;SDS011;32921;53.256;8.198;2022-12-15T06:41:15;46.40;;;23.17;;
47161;SDS011;32921;53.256;8.198;2022-12-15T06:43:42;52.92;;;24.52;;
47161;SDS011;32921;53.256;8.198;2022-12-15T06:46:12;52.40;;;23.73;;
47161;SDS011;32921;53.256;8.198;2022-12-15T06:48:38;54.33;;;27.23;;
47161;SDS011;32921;53.256;8.198;2022-12-15T06:51:04;54.22;;;24.30;;
47161;SDS011;32921;53.256;8.198;2022-12-15T06:53:34;53.28;;;23.50;;
47161;SDS011;32921;53.256;8.198;2022-12-15T06:56:02;46.22;;;24.20;;
47161;SDS011;32921;53.256;8.198;2022-12-15T06:58:32;48.30;;;23.88;;
47161;SDS011;32921;53.256;8.198;2022-12-15T07:00:58;47.25;;;23.55;;
47161;SDS011;32921;53.256;8.198;2022-12-15T07:03:31;39.35;;;18.25;;
47161;SDS011;32921;53.256;8.198;2022-12-15T07:06:01;48.95;;;24.60;;
47161;SDS011;32921;53.256;8.198;2022-12-15T07:08:28;50.67;;;25.48;;
47161;SDS011;32921;53.256;8.198;2022-12-15T07:10:54;52.33;;;27.13;;
47161;SDS011;32921;53.256;8.198;2022-12-15T07:13:20;44.65;;;24.05;;
47161;SDS011;32921;53.256;8.198;2022-12-15T07:15:46;46.20;;;24.02;;
47161;SDS011;32921;53.256;8.198;2022-12-15T07:18:14;43.58;;;22.25;;
47161;SDS011;32921;53.256;8.198;2022-12-15T07:20:40;45.80;;;23.17;;
47161;SDS011;32921;53.256;8.198;2022-12-15T07:23:06;46.22;;;22.98;;
47161;SDS011;32921;53.256;8.198;2022-12-15T07:25:32;53.03;;;24.25;;
47161;SDS011;32921;53.256;8.198;2022-12-15T07:27:59;53.78;;;27.80;;
47161;SDS011;32921;53.256;8.198;2022-12-15T07:30:33;58.08;;;31.98;;
47161;SDS011;32921;53.256;8.198;2022-12-15T07:33:05;93.95;;;53.47;;
47161;SDS011;32921;53.256;8.198;2022-12-15T07:35:31;49.28;;;24.50;;
47161;SDS011;32921;53.256;8.198;2022-12-15T07:37:57;43.10;;;22.33;;
47161;SDS011;32921;53.256;8.198;2022-12-15T07:40:22;45.95;;;20.42;;
47161;SDS011;32921;53.256;8.198;2022-12-15T07:42:48;46.95;;;23.67;;
47161;SDS011;32921;53.256;8.198;2022-12-15T07:45:13;36.45;;;18.58;;
47161;SDS011;32921;53.256;8.198;2022-12-15T07:47:39;33.33;;;18.25;;
47161;SDS011;32921;53.256;8.198;2022-12-15T07:50:05;41.15;;;22.60;;
47161;SDS011;32921;53.256;8.198;2022-12-15T07:52:31;37.60;;;20.15;;
47161;SDS011;32921;53.256;8.198;2022-12-15T07:54:56;40.97;;;20.77;;
47161;SDS011;32921;53.256;8.198;2022-12-15T07:57:22;42.33;;;21.25;;
47161;SDS011;32921;53.256;8.198;2022-12-15T07:59:48;40.75;;;21.10;;
47161;SDS011;32921;53.256;8.198;2022-12-15T08:02:15;43.25;;;22.15;;
47161;SDS011;32921;53.256;8.198;2022-12-15T08:04:41;41.70;;;20.48;;
47161;SDS011;32921;53.256;8.198;2022-12-15T08:07:06;38.25;;;20.77;;
47161;SDS011;32921;53.256;8.198;2022-12-15T08:09:33;41.15;;;20.05;;
47161;SDS011;32921;53.256;8.198;2022-12-15T08:11:59;39.55;;;21.25;;
47161;SDS011;32921;53.256;8.198;2022-12-15T08:14:24;36.17;;;20.48;;
47161;SDS011;32921;53.256;8.198;2022-12-15T08:16:50;42.13;;;20.55;;
47161;SDS011;32921;53.256;8.198;2022-12-15T08:19:16;38.55;;;20.92;;
47161;SDS011;32921;53.256;8.198;2022-12-15T08:21:43;38.90;;;21.48;;
47161;SDS011;32921;53.256;8.198;2022-12-15T08:24:10;44.67;;;22.05;;
47161;SDS011;32921;53.256;8.198;2022-12-15T08:26:36;39.97;;;21.10;;
47161;SDS011;32921;53.256;8.198;2022-12-15T08:29:05;35.85;;;19.25;;
47161;SDS011;32921;53.256;8.198;2022-12-15T08:31:32;36.65;;;21.42;;
47161;SDS011;32921;53.256;8.198;2022-12-15T08:33:59;36.85;;;19.17;;
47161;SDS011;32921;53.256;8.198;2022-12-15T08:36:25;38.72;;;21.30;;
47161;SDS011;32921;53.256;8.198;2022-12-15T08:38:52;38.95;;;21.30;;
47161;SDS011;32921;53.256;8.198;2022-12-15T08:41:21;38.00;;;19.20;;
47161;SDS011;32921;53.256;8.198;2022-12-15T08:43:49;34.67;;;17.20;;
47161;SDS011;32921;53.256;8.198;2022-12-15T08:46:16;34.35;;;17.65;;
47161;SDS011;32921;53.256;8.198;2022-12-15T08:48:43;31.08;;;17.13;;
47161;SDS011;32921;53.256;8.198;2022-12-15T08:51:09;28.67;;;15.90;;
47161;SDS011;32921;53.256;8.198;2022-12-15T08:53:35;37.38;;;18.65;;
47161;SDS011;32921;53.256;8.198;2022-12-15T08:56:06;35.90;;;18.67;;
47161;SDS011;32921;53.256;8.198;2022-12-15T08:58:37;38.70;;;18.88;;
47161;SDS011;32921;53.256;8.198;2022-12-15T09:01:04;36.67;;;20.52;;
47161;SDS011;32921;53.256;8.198;2022-12-15T09:03:32;37.78;;;20.60;;
47161;SDS011;32921;53.256;8.198;2022-12-15T09:06:02;35.63;;;19.35;;
47161;SDS011;32921;53.256;8.198;2022-12-15T09:08:35;36.47;;;17.75;;
47161;SDS011;32921;53.256;8.198;2022-12-15T09:11:01;34.70;;;19.17;;
47161;SDS011;32921;53.256;8.198;2022-12-15T09:13:27;33.42;;;19.15;;
47161;SDS011;32921;53.256;8.198;2022-12-15T09:16:00;32.85;;;17.88;;
47161;SDS011;32921;53.256;8.198;2022-12-15T09:18:29;30.75;;;17.42;;
47161;SDS011;32921;53.256;8.198;2022-12-15T09:20:59;33.83;;;17.17;;
47161;SDS011;32921;53.256;8.198;2022-12-15T09:23:26;37.30;;;20.20;;
47161;SDS011;32921;53.256;8.198;2022-12-15T09:25:57;32.42;;;20.05;;
47161;SDS011;32921;53.256;8.198;2022-12-15T09:28:24;32.22;;;17.67;;
47161;SDS011;32921;53.256;8.198;2022-12-15T09:30:50;35.13;;;20.48;;
47161;SDS011;32921;53.256;8.198;2022-12-15T09:33:15;33.92;;;19.58;;
47161;SDS011;32921;53.256;8.198;2022-12-15T09:35:48;37.63;;;20.20;;
47161;SDS011;32921;53.256;8.198;2022-12-15T09:38:14;31.85;;;17.73;;
47161;SDS011;32921;53.256;8.198;2022-12-15T09:40:40;40.20;;;19.88;;
47161;SDS011;32921;53.256;8.198;2022-12-15T09:43:05;31.88;;;18.85;;
47161;SDS011;32921;53.256;8.198;2022-12-15T09:45:38;33.00;;;19.70;;
47161;SDS011;32921;53.256;8.198;2022-12-15T09:48:09;35.80;;;19.17;;
47161;SDS011;32921;53.256;8.198;2022-12-15T09:50:41;34.03;;;18.95;;
47161;SDS011;32921;53.256;8.198;2022-12-15T09:53:08;37.03;;;19.38;;
47161;SDS011;32921;53.256;8.198;2022-12-15T09:55:36;31.45;;;19.92;;
47161;SDS011;32921;53.256;8.198;2022-12-15T09:58:11;41.28;;;19.30;;
47161;SDS011;32921;53.256;8.198;2022-12-15T10:00:52;33.38;;;20.25;;
47161;SDS011;32921;53.256;8.198;2022-12-15T10:06:22;36.67;;;18.30;;
47161;SDS011;32921;53.256;8.198;2022-12-15T10:09:00;33.45;;;19.08;;
47161;SDS011;32921;53.256;8.198;2022-12-15T10:11:39;34.47;;;19.52;;
47161;SDS011;32921;53.256;8.198;2022-12-15T10:17:04;31.63;;;19.35;;
47161;SDS011;32921;53.256;8.198;2022-12-15T10:22:22;33.45;;;19.40;;
47161;SDS011;32921;53.256;8.198;2022-12-15T10:24:50;32.53;;;19.13;;
47161;SDS011;32921;53.256;8.198;2022-12-15T10:27:41;31.92;;;18.33;;
47161;SDS011;32921;53.256;8.198;2022-12-15T10:30:33;34.80;;;21.20;;
47161;SDS011;32921;53.256;8.198;2022-12-15T10:35:47;34.42;;;18.65;;
47161;SDS011;32921;53.256;8.198;2022-12-15T10:38:35;35.22;;;17.75;;
47161;SDS011;32921;53.256;8.198;2022-12-15T10:41:13;28.05;;;15.98;;
47161;SDS011;32921;53.256;8.198;2022-12-15T10:43:41;27.20;;;15.70;;
47161;SDS011;32921;53.256;8.198;2022-12-15T10:48:49;33.28;;;17.90;;
47161;SDS011;32921;53.256;8.198;2022-12-15T10:51:20;34.08;;;19.60;;
47161;SDS011;32921;53.256;8.198;2022-12-15T10:53:50;37.60;;;19.70;;
47161;SDS011;32921;53.256;8.198;2022-12-15T10:56:19;34.35;;;19.48;;
47161;SDS011;32921;53.256;8.198;2022-12-15T10:58:50;37.40;;;19.23;;
47161;SDS011;32921;53.256;8.198;2022-12-15T11:01:22;32.10;;;19.42;;
47161;SDS011;32921;53.256;8.198;2022-12-15T11:03:55;27.63;;;17.45;;
47161;SDS011;32921;53.256;8.198;2022-12-15T11:06:22;31.20;;;16.35;;
47161;SDS011;32921;53.256;8.198;2022-12-15T11:08:51;36.20;;;18.23;;
47161;SDS011;32921;53.256;8.198;2022-12-15T11:11:29;32.33;;;18.15;;
47161;SDS011;32921;53.256;8.198;2022-12-15T11:14:19;37.25;;;19.15;;
47161;SDS011;32921;53.256;8.198;2022-12-15T11:16:53;36.83;;;18.73;;
47161;SDS011;32921;53.256;8.198;2022-12-15T11:19:27;30.25;;;18.70;;
47161;SDS011;32921;53.256;8.198;2022-12-15T11:22:47;31.42;;;17.85;;
47161;SDS011;32921;53.256;8.198;2022-12-15T11:28:03;31.63;;;17.27;;
47161;SDS011;32921;53.256;8.198;2022-12-15T11:30:41;29.02;;;18.40;;
47161;SDS011;32921;53.256;8.198;2022-12-15T11:33:11;42.97;;;24.55;;
47161;SDS011;32921;53.256;8.198;2022-12-15T11:35:46;61.10;;;36.05;;
47161;SDS011;32921;53.256;8.198;2022-12-15T11:41:02;33.55;;;19.10;;
47161;SDS011;32921;53.256;8.198;2022-12-15T11:46:38;35.50;;;18.85;;
47161;SDS011;32921;53.256;8.198;2022-12-15T11:49:32;33.03;;;17.42;;
47161;SDS011;32921;53.256;8.198;2022-12-15T11:58:00;26.83;;;16.60;;
47161;SDS011;32921;53.256;8.198;2022-12-15T12:00:38;30.23;;;16.25;;
47161;SDS011;32921;53.256;8.198;2022-12-15T12:05:58;30.60;;;17.95;;
47161;SDS011;32921;53.256;8.198;2022-12-15T12:11:11;32.17;;;16.58;;
47161;SDS011;32921;53.256;8.198;2022-12-15T12:25:33;42.28;;;21.45;;
47161;SDS011;32921;53.256;8.198;2022-12-15T12:28:14;32.78;;;18.48;;
47161;SDS011;32921;53.256;8.198;2022-12-15T12:30:44;30.70;;;18.88;;
47161;SDS011;32921;53.256;8.198;2022-12-15T12:33:22;36.85;;;19.10;;
47161;SDS011;32921;53.256;8.198;2022-12-15T12:36:00;30.02;;;17.15;;
47161;SDS011;32921;53.256;8.198;2022-12-15T12:38:37;39.17;;;22.70;;
47161;SDS011;32921;53.256;8.198;2022-12-15T12:41:34;25.33;;;14.32;;
47161;SDS011;32921;53.256;8.198;2022-12-15T12:44:08;25.48;;;16.45;;
47161;SDS011;32921;53.256;8.198;2022-12-15T12:46:42;26.35;;;16.25;;
47161;SDS011;32921;53.256;8.198;2022-12-15T12:49:22;28.83;;;17.95;;
47161;SDS011;32921;53.256;8.198;2022-12-15T12:51:57;28.05;;;16.45;;
47161;SDS011;32921;53.256;8.198;2022-12-15T12:59:50;32.05;;;19.00;;
47161;SDS011;32921;53.256;8.198;2022-12-15T13:10:21;36.67;;;23.88;;
47161;SDS011;32921;53.256;8.198;2022-12-15T13:17:54;29.48;;;17.23;;
47161;SDS011;32921;53.256;8.198;2022-12-15T13:20:40;28.38;;;16.77;;
47161;SDS011;32921;53.256;8.198;2022-12-15T13:28:18;38.83;;;21.70;;
47161;SDS011;32921;53.256;8.198;2022-12-15T13:44:48;27.75;;;17.45;;
47161;SDS011;32921;53.256;8.198;2022-12-15T13:47:11;31.65;;;17.90;;
47161;SDS011;32921;53.256;8.198;2022-12-15T13:49:40;29.52;;;17.95;;
47161;SDS011;32921;53.256;8.198;2022-12-15T13:52:15;32.65;;;18.98;;
47161;SDS011;32921;53.256;8.198;2022-12-15T13:54:54;28.60;;;15.32;;
47161;SDS011;32921;53.256;8.198;2022-12-15T13:57:23;27.05;;;17.60;;
47161;SDS011;32921;53.256;8.198;2022-12-15T13:59:51;27.05;;;16.75;;
47161;SDS011;32921;53.256;8.198;2022-12-15T14:02:26;31.25;;;16.38;;
47161;SDS011;32921;53.256;8.198;2022-12-15T14:12:51;39.25;;;24.13;;
47161;SDS011;32921;53.256;8.198;2022-12-15T14:15:25;66.72;;;40.97;;
47161;SDS011;32921;53.256;8.198;2022-12-15T14:17:54;39.42;;;23.70;;
47161;SDS011;32921;53.256;8.198;2022-12-15T14:20:24;33.30;;;19.63;;
47161;SDS011;32921;53.256;8.198;2022-12-15T14:22:52;37.25;;;20.65;;
47161;SDS011;32921;53.256;8.198;2022-12-15T14:27:46;29.70;;;21.42;;
47161;SDS011;32921;53.256;8.198;2022-12-15T14:30:20;33.55;;;20.20;;
47161;SDS011;32921;53.256;8.198;2022-12-15T14:32:58;32.25;;;19.73;;
47161;SDS011;32921;53.256;8.198;2022-12-15T14:35:32;34.25;;;21.17;;
47161;SDS011;32921;53.256;8.198;2022-12-15T14:38:14;33.85;;;19.73;;
47161;SDS011;32921;53.256;8.198;2022-12-15T14:40:53;58.45;;;44.42;;
47161;SDS011;32921;53.256;8.198;2022-12-15T14:43:24;37.15;;;20.27;;
47161;SDS011;32921;53.256;8.198;2022-12-15T14:45:53;36.42;;;22.92;;
47161;SDS011;32921;53.256;8.198;2022-12-15T14:48:29;40.88;;;27.05;;
47161;SDS011;32921;53.256;8.198;2022-12-15T14:50:59;34.65;;;21.77;;
47161;SDS011;32921;53.256;8.198;2022-12-15T14:53:29;36.65;;;22.02;;
47161;SDS011;32921;53.256;8.198;2022-12-15T14:56:10;39.53;;;24.00;;
47161;SDS011;32921;53.256;8.198;2022-12-15T14:59:00;42.65;;;24.73;;
47161;SDS011;32921;53.256;8.198;2022-12-15T15:01:38;36.75;;;22.25;;
47161;SDS011;32921;53.256;8.198;2022-12-15T15:04:23;40.63;;;23.40;;
47161;SDS011;32921;53.256;8.198;2022-12-15T15:06:56;39.15;;;24.10;;
47161;SDS011;32921;53.256;8.198;2022-12-15T15:09:39;39.95;;;23.50;;
47161;SDS011;32921;53.256;8.198;2022-12-15T15:12:06;46.92;;;28.50;;
47161;SDS011;32921;53.256;8.198;2022-12-15T15:14:45;42.03;;;25.20;;
47161;SDS011;32921;53.256;8.198;2022-12-15T15:17:33;42.58;;;25.80;;
47161;SDS011;32921;53.256;8.198;2022-12-15T15:22:42;42.80;;;25.63;;
47161;SDS011;32921;53.256;8.198;2022-12-15T15:25:26;42.28;;;26.33;;
47161;SDS011;32921;53.256;8.198;2022-12-15T15:28:02;44.70;;;26.67;;
47161;SDS011;32921;53.256;8.198;2022-12-15T15:30:45;60.28;;;32.33;;
47161;SDS011;32921;53.256;8.198;2022-12-15T15:33:21;65.38;;;34.85;;
47161;SDS011;32921;53.256;8.198;2022-12-15T15:35:54;48.85;;;27.77;;
47161;SDS011;32921;53.256;8.198;2022-12-15T15:38:29;56.13;;;33.72;;
47161;SDS011;32921;53.256;8.198;2022-12-15T15:41:08;46.92;;;28.92;;
47161;SDS011;32921;53.256;8.198;2022-12-15T15:43:43;44.38;;;28.08;;
47161;SDS011;32921;53.256;8.198;2022-12-15T15:46:10;60.35;;;38.92;;
47161;SDS011;32921;53.256;8.198;2022-12-15T15:48:42;58.85;;;34.30;;
47161;SDS011;32921;53.256;8.198;2022-12-15T15:51:10;54.17;;;31.90;;
47161;SDS011;32921;53.256;8.198;2022-12-15T15:53:36;45.58;;;28.75;;
47161;SDS011;32921;53.256;8.198;2022-12-15T15:56:03;53.58;;;29.80;;
47161;SDS011;32921;53.256;8.198;2022-12-15T15:58:31;46.17;;;29.50;;
47161;SDS011;32921;53.256;8.198;2022-12-15T16:00:57;59.80;;;34.97;;
47161;SDS011;32921;53.256;8.198;2022-12-15T16:03:23;58.22;;;30.85;;
47161;SDS011;32921;53.256;8.198;2022-12-15T16:05:49;52.80;;;31.48;;
47161;SDS011;32921;53.256;8.198;2022-12-15T16:08:15;49.65;;;31.70;;
47161;SDS011;32921;53.256;8.198;2022-12-15T16:10:45;64.18;;;38.47;;
47161;SDS011;32921;53.256;8.198;2022-12-15T16:13:12;51.70;;;33.53;;
47161;SDS011;32921;53.256;8.198;2022-12-15T16:15:40;57.05;;;31.75;;
47161;SDS011;32921;53.256;8.198;2022-12-15T16:18:06;46.30;;;29.23;;
47161;SDS011;32921;53.256;8.198;2022-12-15T16:20:31;51.13;;;29.90;;
47161;SDS011;32921;53.256;8.198;2022-12-15T16:22:59;43.22;;;27.20;;
47161;SDS011;32921;53.256;8.198;2022-12-15T16:27:57;43.65;;;28.65;;
47161;SDS011;32921;53.256;8.198;2022-12-15T16:30:24;47.70;;;29.65;;
47161;SDS011;32921;53.256;8.198;2022-12-15T16:32:52;48.95;;;29.67;;
47161;SDS011;32921;53.256;8.198;2022-12-15T16:35:18;49.83;;;28.92;;
47161;SDS011;32921;53.256;8.198;2022-12-15T16:37:44;50.55;;;30.52;;
47161;SDS011;32921;53.256;8.198;2022-12-15T16:40:20;48.20;;;30.23;;
47161;SDS011;32921;53.256;8.198;2022-12-15T16:42:53;49.75;;;29.30;;
47161;SDS011;32921;53.256;8.198;2022-12-15T16:45:26;47.40;;;28.15;;
47161;SDS011;32921;53.256;8.198;2022-12-15T16:47:54;45.97;;;28.98;;